Time;durP1;ratioP1;P1;durP2;ratioP2;P2;SDS_P1;SDS_P2;PMS_P1;PMS_P2;Temp;Humidity;BMP_temperature;BMP_pressure;BME280_temperature;BME280_humidity;BME280_pressure;Samples;Min_cycle;Max_cycle;Signal;HPM_P1;HPM_P2
2023/03/22 05:22:36;;;;;;;3.47;2.15;;;;;;;5.16;100.00;99927.00;5130324;27;20116;-66
2023/03/22 05:25:04;;;;;;;6.55;2.92;;;;;;;5.13;100.00;99929.09;5129161;28;20036;-66
2023/03/22 05:27:30;;;;;;;3.30;2.03;;;;;;;5.05;100.00;99929.84;5128658;28;20035;-65
2023/03/22 05:30:00;;;;;;;2.85;2.08;;;;;;;4.98;100.00;99941.13;5128890;27;20402;-66
2023/03/22 05:32:41;;;;;;;2.97;2.30;;;;;;;4.96;100.00;99941.28;5129011;27;20578;-66
2023/03/22 05:35:07;;;;;;;3.22;1.90;;;;;;;4.93;100.00;99944.19;5128922;28;20093;-67
2023/03/22 05:37:37;;;;;;;3.90;2.53;;;;;;;4.94;100.00;99931.81;5128545;28;20031;-68
2023/03/22 05:40:04;;;;;;;3.53;2.22;;;;;;;5.01;100.00;99940.81;5111984;28;20049;-66
2023/03/22 05:42:35;;;;;;;7.07;3.65;;;;;;;5.02;100.00;99945.13;5128844;28;20039;-65
2023/03/22 05:45:07;;;;;;;5.35;2.65;;;;;;;5.01;100.00;99944.28;5128859;28;20039;-64
2023/03/22 05:47:33;;;;;;;4.05;2.92;;;;;;;5.05;100.00;99943.03;5111229;28;20081;-63
2023/03/22 05:50:08;;;;;;;4.88;2.60;;;;;;;5.01;100.00;99941.66;5128708;28;20046;-66
2023/03/22 05:52:33;;;;;;;5.93;2.80;;;;;;;5.08;100.00;99942.72;5128555;27;20034;-65
2023/03/22 05:55:18;;;;;;;3.58;2.35;;;;;;;5.14;100.00;99946.59;5128495;27;20092;-65
2023/03/22 05:57:45;;;;;;;5.57;2.78;;;;;;;5.13;100.00;99943.13;5128136;28;20051;-66
2023/03/22 06:00:15;;;;;;;3.05;2.38;;;;;;;5.23;100.00;99947.56;5128298;27;20032;-65
2023/03/22 06:02:55;;;;;;;3.42;2.40;;;;;;;5.26;100.00;99944.59;5122772;28;20085;-66
2023/03/22 06:05:22;;;;;;;4.72;2.30;;;;;;;5.41;100.00;99953.69;5124039;28;20069;-68
2023/03/22 06:07:49;;;;;;;3.70;2.42;;;;;;;5.39;100.00;99953.03;5127967;27;20019;-65
2023/03/22 06:10:17;;;;;;;4.18;2.58;;;;;;;5.46;100.00;99954.09;5128251;28;20043;-65
2023/03/22 06:12:42;;;;;;;2.65;2.10;;;;;;;5.51;100.00;99943.09;5128106;28;20081;-65
2023/03/22 06:15:13;;;;;;;2.95;2.38;;;;;;;5.60;100.00;99945.66;5128035;28;20043;-66
2023/03/22 06:17:50;;;;;;;3.90;2.40;;;;;;;5.71;100.00;99942.00;5127612;28;20061;-70
2023/03/22 06:20:20;;;;;;;3.35;2.40;;;;;;;5.84;100.00;99941.63;5119524;28;20074;-70
2023/03/22 06:22:51;;;;;;;4.93;2.47;;;;;;;5.95;100.00;99944.09;5127860;28;20469;-70
2023/03/22 06:25:17;;;;;;;4.20;2.00;;;;;;;6.15;100.00;99942.94;5127787;28;20115;-69
2023/03/22 06:27:44;;;;;;;3.72;2.50;;;;;;;6.31;100.00;99949.34;5127420;28;20481;-69
2023/03/22 06:30:10;;;;;;;2.88;2.40;;;;;;;6.49;100.00;99953.63;5127739;28;20045;-69
2023/03/22 06:32:55;;;;;;;6.03;2.05;;;;;;;6.70;100.00;99955.94;5121227;28;20634;-70
2023/03/22 06:35:22;;;;;;;3.35;2.22;;;;;;;6.90;100.00;99950.41;5114193;28;20035;-70
2023/03/22 06:37:47;;;;;;;2.92;2.08;;;;;;;7.12;100.00;99949.91;5113601;28;20039;-70
2023/03/22 06:40:14;;;;;;;2.70;1.92;;;;;;;7.34;100.00;99946.69;5114026;28;20035;-70
2023/03/22 06:42:39;;;;;;;2.55;1.52;;;;;;;7.50;100.00;99942.44;5115225;28;20027;-70
2023/03/22 06:45:13;;;;;;;3.95;2.58;;;;;;;7.62;100.00;99935.81;5113831;28;20035;-70
2023/03/22 06:47:40;;;;;;;5.35;2.03;;;;;;;7.74;100.00;99942.50;5113568;28;20403;-70
2023/03/22 06:50:14;;;;;;;3.47;1.65;;;;;;;7.94;100.00;99945.69;5113687;28;20024;-70
2023/03/22 06:53:08;;;;;;;3.42;2.00;;;;;;;8.25;100.00;99947.72;5107369;28;20412;-70
2023/03/22 06:55:34;;;;;;;3.50;2.08;;;;;;;8.26;100.00;99952.00;5113586;28;20514;-70
2023/03/22 06:58:10;;;;;;;2.38;1.75;;;;;;;8.61;100.00;99958.84;5113263;28;20035;-70
2023/03/22 07:00:37;;;;;;;2.72;1.75;;;;;;;8.93;100.00;99961.47;5113575;28;20430;-70
2023/03/22 07:03:04;;;;;;;3.63;1.80;;;;;;;9.34;99.12;99974.63;5113352;28;20031;-71
2023/03/22 07:05:38;;;;;;;2.63;2.15;;;;;;;9.72;98.08;99969.47;5113538;28;20112;-52
2023/03/22 07:08:04;;;;;;;3.17;2.22;;;;;;;9.82;97.31;99972.72;5113396;28;20092;-56
2023/03/22 07:10:30;;;;;;;4.45;2.47;;;;;;;9.60;93.90;99971.69;5113500;28;20028;-57
2023/03/22 07:12:56;;;;;;;2.75;2.17;;;;;;;9.67;93.98;99980.63;5113318;28;20027;-55
2023/03/22 07:15:23;;;;;;;3.40;2.30;;;;;;;9.83;93.52;99968.25;5113643;28;20069;-53
2023/03/22 07:18:06;;;;;;;2.60;1.83;;;;;;;10.07;94.46;99968.91;5113047;28;20035;-55
2023/03/22 07:20:35;;;;;;;5.95;2.38;;;;;;;10.30;94.73;99962.78;5113176;28;20035;-70
2023/03/22 07:23:01;;;;;;;5.32;2.42;;;;;;;10.51;93.63;99967.47;5113372;28;20019;-70
2023/03/22 07:25:31;;;;;;;3.47;2.15;;;;;;;10.66;91.92;99963.00;5113110;28;20036;-70
2023/03/22 07:28:10;;;;;;;3.75;2.10;;;;;;;10.80;87.76;99964.03;5112735;28;20466;-69
2023/03/22 07:30:36;;;;;;;4.25;2.20;;;;;;;11.00;89.23;99953.66;5112901;28;20032;-70
2023/03/22 07:33:03;;;;;;;3.42;2.22;;;;;;;11.08;87.07;99953.56;5113240;28;20036;-70
2023/03/22 07:35:29;;;;;;;7.45;2.88;;;;;;;11.28;86.84;99956.50;5112845;28;20035;-71
2023/03/22 07:37:55;;;;;;;3.75;2.10;;;;;;;11.41;85.12;99954.06;5113895;28;20054;-71
2023/03/22 07:40:26;;;;;;;2.85;1.80;;;;;;;11.60;82.77;99940.09;5112867;28;20042;-70
2023/03/22 07:42:53;;;;;;;3.58;1.88;;;;;;;11.72;82.30;99961.78;5112740;27;20526;-71
2023/03/22 07:45:33;;;;;;;2.13;1.65;;;;;;;11.77;82.51;99961.25;5111637;28;20027;-70
2023/03/22 07:48:19;;;;;;;1.73;1.60;;;;;;;12.03;83.13;99963.41;5113772;28;20050;-71
2023/03/22 07:51:00;;;;;;;3.28;1.55;;;;;;;12.14;79.31;99969.09;5112820;28;20036;-71
2023/03/22 07:53:25;;;;;;;3.85;1.88;;;;;;;12.20;78.12;99951.47;5112467;28;20042;-71
2023/03/22 07:55:51;;;;;;;2.75;1.60;;;;;;;12.52;76.76;99959.94;5112413;28;20071;-71
2023/03/22 07:58:16;;;;;;;2.97;1.70;;;;;;;12.68;80.35;99965.03;5113426;28;20399;-71
2023/03/22 08:00:42;;;;;;;2.97;1.80;;;;;;;12.81;78.50;99959.78;5112208;28;20036;-71
2023/03/22 08:03:40;;;;;;;2.60;2.05;;;;;;;13.09;76.48;99965.13;5101078;28;20050;-71
2023/03/22 08:06:31;;;;;;;3.53;1.73;;;;;;;13.30;76.73;99958.88;5111416;28;20055;-71
2023/03/22 08:08:57;;;;;;;3.88;1.65;;;;;;;13.51;70.80;99952.63;5112086;28;20031;-71
2023/03/22 08:11:23;;;;;;;1.55;1.20;;;;;;;13.60;71.63;99950.59;5112122;28;20027;-71
2023/03/22 08:13:50;;;;;;;2.47;1.50;;;;;;;13.80;70.01;99955.00;5112250;28;20105;-71
2023/03/22 08:16:15;;;;;;;1.73;1.27;;;;;;;14.00;71.07;99946.19;5112223;28;20040;-71
2023/03/22 08:18:41;;;;;;;2.97;1.42;;;;;;;14.11;68.99;99956.31;5111824;28;20031;-71
2023/03/22 08:21:07;;;;;;;1.70;1.30;;;;;;;14.34;66.54;99948.72;5112061;28;20066;-71
2023/03/22 08:23:34;;;;;;;3.35;1.70;;;;;;;14.71;63.56;99951.84;5112011;28;20130;-70
2023/03/22 08:26:23;;;;;;;1.77;1.20;;;;;;;14.93;61.84;99952.44;5102654;28;20498;-71
2023/03/22 08:28:50;;;;;;;2.80;1.00;;;;;;;15.01;61.37;99948.72;5111593;28;20471;-71
2023/03/22 08:31:17;;;;;;;2.25;1.35;;;;;;;15.01;60.55;99935.31;5111782;28;20119;-71
2023/03/22 08:33:45;;;;;;;1.63;1.00;;;;;;;15.14;62.52;99943.34;5111629;28;20598;-71
2023/03/22 08:36:15;;;;;;;2.92;1.30;;;;;;;15.34;61.43;99940.59;5112762;28;20122;-70
2023/03/22 08:38:46;;;;;;;1.50;0.93;;;;;;;15.59;61.80;99940.72;5111206;28;20035;-70
2023/03/22 08:41:14;;;;;;;3.20;1.15;;;;;;;15.71;59.65;99929.13;5111758;28;20054;-71
2023/03/22 08:43:41;;;;;;;2.33;1.00;;;;;;;15.88;58.60;99926.75;5111466;28;20540;-70
2023/03/22 08:46:07;;;;;;;3.05;1.00;;;;;;;16.10;55.25;99942.50;5111915;28;20391;-70
2023/03/22 08:48:34;;;;;;;1.52;1.00;;;;;;;16.22;57.12;99955.03;5112548;28;20035;-70
2023/03/22 08:51:20;;;;;;;2.10;1.17;;;;;;;16.36;55.63;99947.72;5111617;28;20028;-70
2023/03/22 08:54:05;;;;;;;1.52;1.05;;;;;;;16.59;54.40;99940.94;5112280;28;20047;-70
2023/03/22 08:57:02;;;;;;;2.20;1.05;;;;;;;16.92;54.03;99943.34;5074306;28;20052;-70
2023/03/22 08:59:46;;;;;;;3.38;0.88;;;;;;;17.18;53.49;99936.88;5111713;28;20094;-70
2023/03/22 09:02:28;;;;;;;1.30;0.60;;;;;;;17.34;55.30;99947.88;5096797;28;20059;-70
2023/03/22 09:04:55;;;;;;;1.38;0.95;;;;;;;17.29;53.32;99946.91;5111557;28;20043;-70
2023/03/22 09:07:21;;;;;;;1.27;0.75;;;;;;;17.04;52.64;99933.50;5110945;28;20036;-70
2023/03/22 09:09:55;;;;;;;1.27;1.02;;;;;;;17.19;53.16;99939.34;5111332;28;20040;-70
2023/03/22 09:12:21;;;;;;;0.90;0.70;;;;;;;17.37;52.99;99933.13;5111266;28;20069;-70
2023/03/22 09:14:48;;;;;;;0.43;0.43;;;;;;;17.66;51.14;99936.09;5112447;28;20069;-70
2023/03/22 09:17:14;;;;;;;1.73;0.80;;;;;;;17.67;51.25;99929.66;5110951;28;20093;-70
2023/03/22 09:19:40;;;;;;;1.75;0.73;;;;;;;17.66;54.55;99928.00;5111261;28;20040;-71
2023/03/22 09:22:05;;;;;;;1.08;0.70;;;;;;;17.40;50.08;99929.16;5111222;28;20518;-71
2023/03/22 09:24:44;;;;;;;0.95;0.85;;;;;;;17.22;50.55;99919.25;5111468;28;20412;-71
2023/03/22 09:27:09;;;;;;;1.02;0.80;;;;;;;16.99;50.83;99918.03;5110808;28;20038;-71
2023/03/22 09:29:35;;;;;;;1.08;0.77;;;;;;;17.00;52.36;99906.22;5112312;28;20061;-70
2023/03/22 09:32:05;;;;;;;1.55;0.73;;;;;;;17.13;52.34;99912.50;5111035;28;20532;-70
2023/03/22 09:34:32;;;;;;;0.77;0.52;;;;;;;17.37;51.46;99906.22;5110982;28;20059;-71
2023/03/22 09:37:01;;;;;;;1.02;0.50;;;;;;;17.59;50.38;99906.56;5111005;28;20062;-71
2023/03/22 09:39:29;;;;;;;0.32;0.32;;;;;;;17.88;49.29;99899.56;5110841;28;20069;-71
2023/03/22 09:42:01;;;;;;;1.42;0.60;;;;;;;18.01;49.19;99894.00;5110934;28;20040;-71
2023/03/22 09:44:39;;;;;;;1.98;0.80;;;;;;;18.04;48.43;99892.69;5112480;28;20114;-71
2023/03/22 09:47:14;;;;;;;1.58;0.60;;;;;;;18.27;49.13;99889.25;5110665;28;20043;-72
2023/03/22 09:49:44;;;;;;;0.63;0.50;;;;;;;18.69;47.79;99890.00;5112243;28;20477;-71
2023/03/22 09:52:13;;;;;;;0.95;0.50;;;;;;;18.92;47.73;99886.47;5112156;28;20031;-71
2023/03/22 09:54:41;;;;;;;1.05;0.65;;;;;;;19.12;47.63;99886.09;5112005;28;20035;-72
2023/03/22 09:57:31;;;;;;;0.68;0.45;;;;;;;19.37;45.95;99883.94;5111743;28;20101;-72
2023/03/22 10:00:11;;;;;;;0.75;0.50;;;;;;;19.75;45.86;99882.50;5112230;28;20080;-72
2023/03/22 10:03:08;;;;;;;0.95;0.65;;;;;;;20.11;43.94;99886.66;5112169;28;20093;-72
2023/03/22 10:05:48;;;;;;;0.20;0.20;;;;;;;20.12;44.48;99882.09;5112014;28;20080;-72
2023/03/22 10:08:26;;;;;;;0.40;0.30;;;;;;;20.29;43.77;99882.91;5113708;28;20115;-71
2023/03/22 10:10:52;;;;;;;0.70;0.40;;;;;;;20.27;44.84;99875.03;5115805;28;20039;-71
2023/03/22 10:13:22;;;;;;;0.30;0.30;;;;;;;20.29;42.87;99875.63;5115842;28;20030;-72
2023/03/22 10:15:51;;;;;;;0.60;0.40;;;;;;;20.38;41.97;99877.91;5115760;28;20032;-71
2023/03/22 10:18:25;;;;;;;0.43;0.40;;;;;;;20.23;42.28;99883.91;5115425;28;20036;-71
2023/03/22 10:21:00;;;;;;;0.82;0.50;;;;;;;20.71;42.41;99858.16;5115705;28;20028;-72
2023/03/22 10:23:57;;;;;;;0.52;0.38;;;;;;;20.97;42.12;99870.97;5115564;28;20081;-71
2023/03/22 10:26:35;;;;;;;0.60;0.40;;;;;;;21.19;41.00;99865.56;5113120;28;20051;-70
2023/03/22 10:29:08;;;;;;;0.63;0.45;;;;;;;21.55;40.23;99857.88;5115523;28;20085;-70
2023/03/22 10:31:34;;;;;;;2.03;0.57;;;;;;;21.26;40.00;99866.19;5115420;28;20106;-70
2023/03/22 10:34:15;;;;;;;0.95;0.60;;;;;;;21.10;40.06;99859.75;5115352;28;20024;-71
2023/03/22 10:36:42;;;;;;;0.50;0.47;;;;;;;21.42;40.26;99850.16;5115283;28;20032;-72
2023/03/22 10:39:26;;;;;;;0.90;0.65;;;;;;;21.29;39.96;99849.47;5115149;28;20035;-71
2023/03/22 10:41:54;;;;;;;0.30;0.30;;;;;;;21.39;41.62;99848.78;5115410;28;20173;-71
2023/03/22 10:44:23;;;;;;;0.40;0.40;;;;;;;21.27;40.21;99857.00;5115223;28;20034;-71
2023/03/22 10:46:50;;;;;;;0.43;0.40;;;;;;;21.61;41.88;99841.41;5114939;28;20087;-70
2023/03/22 10:49:27;;;;;;;0.50;0.50;;;;;;;21.97;42.57;99836.31;5114999;28;20046;-71
2023/03/22 10:51:57;;;;;;;0.70;0.30;;;;;;;21.95;38.54;99844.72;5115009;28;20053;-71
2023/03/22 10:54:24;;;;;;;0.60;0.40;;;;;;;22.42;39.61;99830.47;5096928;28;20467;-71
2023/03/22 10:56:50;;;;;;;0.77;0.40;;;;;;;22.75;39.41;99836.63;5094397;28;20181;-72
2023/03/22 10:59:46;;;;;;;1.60;0.60;;;;;;;23.03;37.92;99832.75;5094700;28;20055;-71
2023/03/22 11:02:22;;;;;;;0.55;0.40;;;;;;;23.19;37.14;99833.63;5094003;28;20051;-71
2023/03/22 11:04:53;;;;;;;1.60;0.50;;;;;;;22.83;37.64;99830.72;5094375;28;20127;-71
2023/03/22 11:07:35;;;;;;;1.02;0.60;;;;;;;22.85;38.57;99828.56;5093982;28;20028;-71
2023/03/22 11:10:09;;;;;;;0.50;0.50;;;;;;;23.46;38.17;99836.97;5094508;28;20066;-71
2023/03/22 11:12:44;;;;;;;0.35;0.32;;;;;;;23.50;36.46;99818.22;5094225;28;20082;-71
2023/03/22 11:15:21;;;;;;;0.52;0.40;;;;;;;23.83;36.11;99825.91;5094409;28;20032;-71
2023/03/22 11:17:47;;;;;;;0.90;0.50;;;;;;;23.67;36.43;99815.28;5093898;28;20094;-72
2023/03/22 11:20:17;;;;;;;0.43;0.30;;;;;;;23.63;37.43;99822.38;5093975;28;20028;-72
2023/03/22 11:22:45;;;;;;;0.57;0.43;;;;;;;24.01;36.53;99812.88;5094185;28;20027;-72
2023/03/22 11:25:25;;;;;;;0.52;0.52;;;;;;;24.06;35.23;99815.56;5093986;28;20036;-71
2023/03/22 11:28:06;;;;;;;0.57;0.43;;;;;;;24.76;36.40;99813.88;5093776;28;20477;-71
2023/03/22 11:30:33;;;;;;;0.88;0.55;;;;;;;24.48;33.98;99830.84;5093854;28;20047;-71
2023/03/22 11:33:16;;;;;;;0.50;0.40;;;;;;;24.44;34.21;99808.78;5094018;28;20035;-71
2023/03/22 11:35:44;;;;;;;1.90;0.47;;;;;;;24.39;34.39;99797.91;5093987;28;20043;-73
2023/03/22 11:38:28;;;;;;;0.30;0.30;;;;;;;24.41;34.94;99803.91;5093655;28;20058;-72
2023/03/22 11:40:58;;;;;;;0.65;0.47;;;;;;;24.67;34.31;99815.53;5093826;28;20504;-71
2023/03/22 11:43:33;;;;;;;0.60;0.38;;;;;;;24.54;34.65;99808.75;5093849;28;20443;-71
2023/03/22 11:45:59;;;;;;;0.57;0.40;;;;;;;23.54;35.31;99812.00;5093586;28;20040;-69
2023/03/22 11:48:27;;;;;;;0.35;0.30;;;;;;;23.61;36.36;99800.06;5093442;28;20047;-70
2023/03/22 11:50:58;;;;;;;1.20;0.98;;;;;;;23.71;35.05;99797.34;5093466;28;20052;-70
2023/03/22 11:53:26;;;;;;;0.35;0.30;;;;;;;23.54;35.06;99813.91;5093544;28;20040;-70
2023/03/22 11:55:54;;;;;;;0.38;0.38;;;;;;;24.05;34.25;99790.28;5093454;28;20080;-70
2023/03/22 11:58:28;;;;;;;0.40;0.30;;;;;;;24.66;33.15;99800.31;5093422;28;20478;-71
2023/03/22 12:00:59;;;;;;;1.10;0.30;;;;;;;23.84;33.97;99785.94;5093341;28;20066;-71
2023/03/22 12:03:29;;;;;;;0.25;0.25;;;;;;;24.20;33.58;99794.09;5093309;28;20714;-71
2023/03/22 12:05:57;;;;;;;0.70;0.40;;;;;;;24.70;33.88;99789.66;5093056;28;20043;-71
2023/03/22 12:08:29;;;;;;;1.73;0.43;;;;;;;24.08;33.82;99778.88;5092963;28;20036;-70
2023/03/22 12:11:09;;;;;;;1.30;0.40;;;;;;;23.93;35.51;99778.91;5093350;28;20055;-70
2023/03/22 12:13:56;;;;;;;2.15;0.63;;;;;;;24.37;34.90;99772.88;5093264;28;20040;-71
2023/03/22 12:16:28;;;;;;;0.47;0.43;;;;;;;24.24;33.47;99762.50;5092857;28;20042;-71
2023/03/22 12:19:13;;;;;;;0.50;0.50;;;;;;;23.44;33.91;99775.81;5092849;28;20044;-71
2023/03/22 12:21:39;;;;;;;0.50;0.50;;;;;;;23.49;34.21;99763.06;5092842;28;20362;-70
2023/03/22 12:24:21;;;;;;;0.40;0.40;;;;;;;23.55;34.69;99761.97;5093103;28;20058;-70
2023/03/22 12:26:48;;;;;;;0.40;0.40;;;;;;;24.06;34.06;99755.72;5092652;28;20084;-70
2023/03/22 12:29:17;;;;;;;0.47;0.40;;;;;;;24.88;32.14;99754.44;5092710;28;20084;-70
2023/03/22 12:31:59;;;;;;;0.63;0.28;;;;;;;25.19;31.56;99764.41;5098806;28;20031;-70
2023/03/22 12:34:34;;;;;;;1.63;0.47;;;;;;;25.31;33.16;99760.25;5110663;28;20126;-71
2023/03/22 12:37:04;;;;;;;0.60;0.40;;;;;;;24.03;32.72;99743.50;5112780;28;20043;-70
2023/03/22 12:39:41;;;;;;;0.55;0.50;;;;;;;24.67;33.42;99747.47;5111808;28;20511;-71
2023/03/22 12:42:36;;;;;;;0.30;0.30;;;;;;;24.77;32.63;99752.03;5112968;28;20477;-71
2023/03/22 12:45:09;;;;;;;0.47;0.40;;;;;;;25.04;32.04;99733.44;5112883;28;20116;-71
2023/03/22 12:47:46;;;;;;;0.47;0.40;;;;;;;24.70;33.27;99729.75;5112422;28;20039;-70
2023/03/22 12:50:20;;;;;;;1.15;0.80;;;;;;;24.85;31.62;99727.78;5112871;28;20040;-70
2023/03/22 12:52:47;;;;;;;1.10;0.65;;;;;;;24.66;32.65;99725.97;5112789;28;20039;-70
2023/03/22 12:55:21;;;;;;;1.20;1.10;;;;;;;24.74;32.63;99719.94;5112647;28;20023;-70
2023/03/22 12:57:50;;;;;;;1.45;0.68;;;;;;;24.19;32.62;99706.22;5112265;28;20562;-71
2023/03/22 13:00:17;;;;;;;0.55;0.55;;;;;;;23.35;33.45;99718.47;5112731;28;20032;-70
2023/03/22 13:03:05;;;;;;;0.40;0.40;;;;;;;22.79;34.43;99704.72;5112550;28;20035;-71
2023/03/22 13:05:33;;;;;;;0.43;0.35;;;;;;;23.21;35.70;99701.03;5112548;28;20089;-71
2023/03/22 13:08:02;;;;;;;1.00;0.73;;;;;;;23.68;34.25;99705.47;5112291;28;20050;-70
2023/03/22 13:10:30;;;;;;;1.77;0.45;;;;;;;23.70;34.90;99689.69;5112435;28;20110;-71
2023/03/22 13:13:30;;;;;;;0.60;0.60;;;;;;;22.72;35.83;99688.69;5112519;28;20031;-70
2023/03/22 13:16:01;;;;;;;2.17;0.70;;;;;;;22.32;36.14;99683.91;5112500;28;20040;-70
2023/03/22 13:18:36;;;;;;;0.70;0.50;;;;;;;21.55;36.78;99682.56;5111675;28;20053;-71
2023/03/22 13:21:07;;;;;;;1.10;0.60;;;;;;;21.57;36.98;99672.28;5091986;28;20093;-70
2023/03/22 13:23:33;;;;;;;0.63;0.50;;;;;;;21.72;37.04;99682.44;5091978;28;20036;-70
2023/03/22 13:26:01;;;;;;;0.65;0.43;;;;;;;21.20;37.48;99677.63;5092078;28;20052;-70
2023/03/22 13:28:28;;;;;;;0.90;0.60;;;;;;;21.26;38.04;99671.19;5091662;28;20545;-70
2023/03/22 13:30:56;;;;;;;0.40;0.40;;;;;;;21.67;37.39;99669.66;5092076;28;20496;-70
2023/03/22 13:33:28;;;;;;;0.50;0.50;;;;;;;22.11;37.38;99665.91;5091875;28;20036;-70
2023/03/22 13:35:58;;;;;;;0.38;0.38;;;;;;;22.30;36.01;99661.66;5091853;28;20531;-71
2023/03/22 13:38:31;;;;;;;0.70;0.40;;;;;;;22.63;36.02;99652.31;5091105;28;20036;-71
2023/03/22 13:41:05;;;;;;;0.43;0.43;;;;;;;22.42;36.10;99656.00;5112368;28;20031;-70
2023/03/22 13:43:45;;;;;;;0.80;0.47;;;;;;;22.18;36.63;99636.66;5114780;28;20035;-71
2023/03/22 13:46:16;;;;;;;0.47;0.40;;;;;;;21.83;36.59;99654.31;5116149;28;20035;-70
2023/03/22 13:48:52;;;;;;;0.40;0.40;;;;;;;21.20;37.82;99652.44;5115865;28;20560;-70
2023/03/22 13:51:20;;;;;;;0.88;0.47;;;;;;;20.74;38.97;99650.09;5116194;28;20404;-71
2023/03/22 13:54:05;;;;;;;1.13;0.55;;;;;;;20.46;39.13;99651.13;5116168;28;20492;-70
2023/03/22 13:56:54;;;;;;;0.70;0.43;;;;;;;20.37;39.73;99640.97;5115916;28;20038;-70
2023/03/22 13:59:26;;;;;;;0.55;0.50;;;;;;;20.21;41.29;99643.50;5116103;28;20074;-70
2023/03/22 14:02:17;;;;;;;0.22;0.22;;;;;;;20.44;40.19;99630.78;5116002;28;20043;-70
2023/03/22 14:05:15;;;;;;;0.80;0.60;;;;;;;20.86;40.57;99634.53;5116046;28;20065;-70
2023/03/22 14:07:48;;;;;;;0.80;0.65;;;;;;;21.01;38.86;99638.47;5114411;28;20450;-71
2023/03/22 14:10:20;;;;;;;0.50;0.38;;;;;;;21.39;37.99;99630.16;5115947;28;20064;-70
2023/03/22 14:12:58;;;;;;;0.50;0.47;;;;;;;21.46;37.62;99629.94;5115795;28;20081;-70
2023/03/22 14:15:28;;;;;;;2.47;0.60;;;;;;;21.29;37.73;99621.94;5115791;28;20053;-70
2023/03/22 14:18:21;;;;;;;1.48;0.50;;;;;;;21.09;38.59;99619.84;5115384;28;20031;-70
2023/03/22 14:20:51;;;;;;;0.77;0.50;;;;;;;20.91;39.34;99608.56;5115617;28;20043;-70
2023/03/22 14:23:28;;;;;;;1.67;0.63;;;;;;;20.69;39.66;99612.16;5115571;28;20067;-70
2023/03/22 14:25:59;;;;;;;1.02;0.68;;;;;;;20.63;39.42;99606.94;5115536;28;20469;-70
2023/03/22 14:28:35;;;;;;;1.05;0.60;;;;;;;20.50;39.59;99605.44;5115303;28;20081;-70
2023/03/22 14:31:01;;;;;;;0.47;0.47;;;;;;;20.48;39.73;99610.31;5115402;28;20035;-70
2023/03/22 14:33:29;;;;;;;0.60;0.50;;;;;;;20.40;40.31;99606.09;5115385;28;20052;-70
2023/03/22 14:35:58;;;;;;;1.75;0.60;;;;;;;20.16;39.74;99605.56;5115450;28;20051;-70
2023/03/22 14:38:32;;;;;;;0.68;0.60;;;;;;;20.22;40.84;99593.75;5114885;28;20035;-70
2023/03/22 14:41:14;;;;;;;0.98;0.43;;;;;;;20.23;40.96;99602.69;5115448;28;20111;-70
2023/03/22 14:43:41;;;;;;;0.82;0.50;;;;;;;20.31;40.96;99594.94;5115242;28;20042;-70
2023/03/22 14:46:16;;;;;;;0.35;0.35;;;;;;;20.22;41.93;99592.94;5115203;28;20046;-70
2023/03/22 14:48:51;;;;;;;0.68;0.40;;;;;;;20.25;39.91;99590.53;5114945;28;20027;-69
2023/03/22 14:51:21;;;;;;;1.27;0.65;;;;;;;20.17;38.06;99599.09;5115214;27;20123;-70
2023/03/22 14:53:47;;;;;;;0.70;0.50;;;;;;;20.13;38.59;99591.72;5114586;28;20042;-70
2023/03/22 14:56:28;;;;;;;0.55;0.40;;;;;;;20.18;37.97;99589.91;5115005;28;20047;-69
2023/03/22 14:58:56;;;;;;;0.32;0.28;;;;;;;20.22;38.02;99584.81;5114638;28;20519;-70
2023/03/22 15:01:52;;;;;;;0.40;0.40;;;;;;;20.24;36.59;99591.59;5114824;28;20114;-70
2023/03/22 15:04:20;;;;;;;1.02;0.60;;;;;;;20.18;35.64;99587.19;5114409;28;20516;-69
2023/03/22 15:06:53;;;;;;;0.43;0.30;;;;;;;20.23;35.71;99581.88;5114695;28;20071;-69
2023/03/22 15:09:19;;;;;;;0.47;0.47;;;;;;;20.19;36.14;99578.00;5114785;28;20027;-69
2023/03/22 15:11:48;;;;;;;0.30;0.30;;;;;;;20.27;35.37;99584.88;5114656;28;20404;-69
2023/03/22 15:14:14;;;;;;;0.95;0.65;;;;;;;20.25;36.80;99587.00;5114631;28;20043;-69
2023/03/22 15:16:43;;;;;;;0.65;0.65;;;;;;;20.00;38.48;99591.03;5114607;28;20035;-70
2023/03/22 15:19:14;;;;;;;0.55;0.47;;;;;;;20.07;38.60;99590.84;5114395;27;20036;-69
2023/03/22 15:21:41;;;;;;;0.40;0.40;;;;;;;20.07;39.22;99585.44;5114581;28;20065;-69
2023/03/22 15:24:33;;;;;;;1.05;0.60;;;;;;;20.02;39.53;99585.41;5114707;28;20046;-69
2023/03/22 15:27:11;;;;;;;0.60;0.60;;;;;;;19.97;39.64;99588.03;5111125;28;20496;-69
2023/03/22 15:29:40;;;;;;;0.45;0.45;;;;;;;19.97;39.65;99577.22;5114317;28;20032;-69
2023/03/22 15:32:15;;;;;;;0.45;0.45;;;;;;;19.87;39.60;99577.06;5114170;28;20036;-70
2023/03/22 15:34:41;;;;;;;0.55;0.40;;;;;;;19.88;40.16;99573.28;5114383;28;20039;-70
2023/03/22 15:37:21;;;;;;;0.52;0.52;;;;;;;19.73;40.31;99572.03;5113878;28;20088;-69
2023/03/22 15:39:47;;;;;;;0.93;0.70;;;;;;;19.73;39.74;99568.50;5114162;28;20496;-69
2023/03/22 15:42:24;;;;;;;0.77;0.60;;;;;;;19.67;39.48;99574.91;5114184;28;20100;-70
2023/03/22 15:44:53;;;;;;;0.60;0.40;;;;;;;19.69;39.95;99578.16;5113946;28;20035;-69
2023/03/22 15:47:20;;;;;;;0.88;0.60;;;;;;;19.78;39.77;99574.00;5113665;28;20034;-69
2023/03/22 15:49:50;;;;;;;0.90;0.57;;;;;;;19.76;39.81;99578.84;5114069;28;20131;-69
2023/03/22 15:52:27;;;;;;;0.50;0.50;;;;;;;19.72;39.67;99564.19;5113880;28;20040;-70
2023/03/22 15:54:53;;;;;;;0.57;0.40;;;;;;;19.66;39.44;99565.97;5113800;28;20063;-70
2023/03/22 15:57:35;;;;;;;0.63;0.50;;;;;;;19.56;39.15;99568.53;5113448;28;20074;-69
2023/03/22 16:00:00;;;;;;;0.55;0.50;;;;;;;19.52;39.42;99570.06;5113732;28;20039;-70
2023/03/22 16:02:31;;;;;;;0.50;0.47;;;;;;;19.53;39.41;99577.13;5113798;28;20024;-70
2023/03/22 16:04:59;;;;;;;0.88;0.50;;;;;;;19.46;39.14;99571.06;5112919;28;20469;-70
2023/03/22 16:07:28;;;;;;;1.20;0.60;;;;;;;19.44;39.86;99574.03;5113195;28;20491;-70
2023/03/22 16:09:54;;;;;;;0.70;0.60;;;;;;;19.33;39.17;99568.72;5113444;28;20047;-70
2023/03/22 16:12:20;;;;;;;0.85;0.57;;;;;;;19.32;39.19;99567.06;5113506;28;20028;-70
2023/03/22 16:14:46;;;;;;;0.70;0.60;;;;;;;19.35;39.55;99569.28;5113402;28;20369;-69
2023/03/22 16:17:17;;;;;;;0.75;0.47;;;;;;;19.37;39.08;99567.16;5112992;28;20043;-69
2023/03/22 16:19:42;;;;;;;0.80;0.55;;;;;;;19.37;39.05;99569.88;5113290;28;20042;-70
2023/03/22 16:22:10;;;;;;;1.30;0.63;;;;;;;19.34;39.81;99571.16;5113189;28;20023;-69
2023/03/22 16:24:35;;;;;;;0.77;0.75;;;;;;;19.33;39.92;99571.41;5113169;28;20031;-68
2023/03/22 16:27:08;;;;;;;0.50;0.50;;;;;;;19.27;39.93;99581.31;5112948;28;20039;-69
2023/03/22 16:29:33;;;;;;;1.33;0.65;;;;;;;19.32;39.58;99570.59;5113198;28;20054;-69
2023/03/22 16:31:58;;;;;;;1.02;0.43;;;;;;;19.27;40.09;99572.38;5113140;28;20114;-70
2023/03/22 16:34:24;;;;;;;0.50;0.50;;;;;;;19.33;40.10;99583.03;5113126;28;20031;-69
2023/03/22 16:36:49;;;;;;;0.75;0.50;;;;;;;19.27;39.56;99578.59;5112891;28;20039;-69
2023/03/22 16:39:15;;;;;;;1.35;0.60;;;;;;;19.22;40.85;99583.91;5113091;28;20035;-69
2023/03/22 16:41:40;;;;;;;1.20;0.65;;;;;;;19.21;40.07;99583.09;5112977;28;20435;-69
2023/03/22 16:44:05;;;;;;;0.88;0.65;;;;;;;19.13;40.32;99588.09;5112945;28;20434;-69
2023/03/22 16:46:32;;;;;;;1.35;0.70;;;;;;;19.11;41.36;99593.75;5112864;28;20036;-69
2023/03/22 16:48:58;;;;;;;1.88;1.10;;;;;;;19.12;40.84;99591.88;5112356;28;20046;-48
2023/03/22 16:51:27;;;;;;;1.17;1.00;;;;;;;19.08;41.64;99585.31;5112551;28;20036;-50
2023/03/22 16:53:52;;;;;;;0.55;0.55;;;;;;;19.00;42.23;99589.25;5112928;28;20103;-49
2023/03/22 16:56:24;;;;;;;0.93;0.50;;;;;;;18.94;42.03;99585.63;5112635;28;20122;-51
2023/03/22 16:58:50;;;;;;;3.13;1.70;;;;;;;18.88;42.13;99591.19;5112515;28;20110;-53
2023/03/22 17:01:18;;;;;;;0.88;0.80;;;;;;;18.81;40.97;99583.25;5112671;28;20507;-47
2023/03/22 17:03:45;;;;;;;0.93;0.52;;;;;;;18.63;42.00;99595.03;5112814;28;20039;-46
2023/03/22 17:06:12;;;;;;;1.70;0.80;;;;;;;18.63;43.70;99586.13;5112584;28;20035;-46
2023/03/22 17:08:38;;;;;;;1.08;0.98;;;;;;;18.57;42.37;99585.19;5111081;28;20512;-63
2023/03/22 17:11:03;;;;;;;1.50;1.02;;;;;;;18.52;43.06;99590.53;5103905;28;20075;-63
2023/03/22 17:13:29;;;;;;;1.42;0.98;;;;;;;18.44;43.07;99591.69;5112584;28;20118;-63
2023/03/22 17:15:54;;;;;;;0.80;0.65;;;;;;;18.40;43.76;99590.56;5112444;28;20121;-63
2023/03/22 17:18:19;;;;;;;1.65;0.88;;;;;;;18.36;43.12;99591.25;5110879;28;20122;-63